Time;durP1;ratioP1;P1;durP2;ratioP2;P2;SDS_P1;SDS_P2;PMS_P1;PMS_P2;Temp;Humidity;BMP_temperature;BMP_pressure;BME280_temperature;BME280_humidity;BME280_pressure;Samples;Min_cycle;Max_cycle;Signal;HPM_P1;HPM_P2
2021/11/19 00:02:00;;;;;;;40.30;23.23;;;8.50;99.90;;;;;;4984185;28;20038;-83
2021/11/19 00:04:28;;;;;;;58.03;27.90;;;8.40;99.90;;;;;;4984155;28;20027;-82
2021/11/19 00:06:55;;;;;;;45.70;25.00;;;8.40;99.90;;;;;;4984468;28;20041;-83
2021/11/19 00:09:22;;;;;;;45.35;24.90;;;8.40;99.90;;;;;;4984202;28;20026;-83
2021/11/19 00:11:49;;;;;;;49.00;26.10;;;8.40;99.90;;;;;;4984185;28;20230;-83
2021/11/19 00:14:16;;;;;;;51.53;26.27;;;8.40;99.90;;;;;;4984097;28;20054;-83
2021/11/19 00:16:46;;;;;;;38.60;23.52;;;8.50;99.90;;;;;;4983957;28;20031;-83
2021/11/19 00:19:13;;;;;;;32.85;19.90;;;8.50;99.90;;;;;;4982780;28;20318;-83
2021/11/19 00:21:41;;;;;;;35.80;21.50;;;8.50;99.90;;;;;;4983740;28;20058;-83
2021/11/19 00:24:08;;;;;;;40.22;23.48;;;8.50;99.90;;;;;;4983820;28;20038;-83
2021/11/19 00:26:35;;;;;;;34.58;19.60;;;8.50;99.90;;;;;;4983788;28;20023;-82
2021/11/19 00:29:02;;;;;;;30.05;19.15;;;8.50;99.90;;;;;;4984122;28;20030;-83
2021/11/19 00:31:29;;;;;;;24.60;17.50;;;8.40;99.90;;;;;;4983622;28;20034;-83
2021/11/19 00:33:57;;;;;;;29.73;19.02;;;8.40;99.90;;;;;;4982068;28;20053;-83
2021/11/19 00:36:26;;;;;;;33.88;18.88;;;8.40;99.90;;;;;;4983190;28;20054;-83
2021/11/19 00:38:56;;;;;;;27.52;17.20;;;8.40;99.90;;;;;;4983395;28;20085;-83
2021/11/19 00:41:22;;;;;;;27.90;17.90;;;8.40;99.90;;;;;;4984097;28;20022;-82
2021/11/19 00:43:48;;;;;;;28.00;17.95;;;8.40;99.90;;;;;;4983482;28;20282;-83
2021/11/19 00:46:14;;;;;;;27.25;16.58;;;8.40;99.90;;;;;;4983200;28;20031;-83
2021/11/19 00:48:41;;;;;;;29.40;16.90;;;8.40;99.90;;;;;;4983360;28;20037;-83
2021/11/19 00:51:32;;;;;;;24.38;15.93;;;8.40;99.90;;;;;;4981974;28;20049;-82
2021/11/19 00:53:59;;;;;;;25.08;15.98;;;8.40;99.90;;;;;;4982664;28;20066;-83
2021/11/19 00:56:29;;;;;;;24.67;16.40;;;8.40;99.90;;;;;;4983324;28;20065;-83
2021/11/19 00:58:56;;;;;;;24.73;16.02;;;8.50;99.90;;;;;;4983207;28;20242;-83
2021/11/19 01:01:32;;;;;;;27.33;16.55;;;8.50;99.90;;;;;;4982257;28;20033;-83
2021/11/19 01:04:00;;;;;;;24.23;15.50;;;8.50;99.90;;;;;;4982846;28;20054;-82
2021/11/19 01:06:27;;;;;;;27.48;16.27;;;8.50;99.90;;;;;;4982065;28;20026;-82
2021/11/19 01:08:53;;;;;;;27.40;16.45;;;8.50;99.90;;;;;;4982933;28;20049;-83
2021/11/19 01:11:21;;;;;;;25.45;16.17;;;8.50;99.90;;;;;;4982945;28;20362;-83
2021/11/19 01:13:49;;;;;;;26.40;16.35;;;8.50;99.90;;;;;;4983105;28;20023;-83
2021/11/19 01:16:21;;;;;;;26.90;15.90;;;8.50;99.90;;;;;;4982360;28;20313;-83
2021/11/19 01:18:57;;;;;;;28.10;15.88;;;8.40;99.90;;;;;;4982124;28;20219;-83
2021/11/19 01:21:45;;;;;;;28.50;15.70;;;8.30;99.90;;;;;;4982341;28;20315;-83
2021/11/19 01:24:11;;;;;;;28.63;17.08;;;8.40;99.90;;;;;;4982996;28;20027;-83
2021/11/19 01:26:39;;;;;;;25.20;16.40;;;8.40;99.90;;;;;;4982441;28;20030;-82
2021/11/19 01:29:09;;;;;;;27.23;16.27;;;8.50;99.90;;;;;;4982885;28;20311;-83
2021/11/19 01:31:39;;;;;;;26.52;16.65;;;8.50;99.90;;;;;;4982899;28;20041;-83
2021/11/19 01:34:06;;;;;;;26.77;16.42;;;8.50;99.90;;;;;;4981884;28;20086;-83
2021/11/19 01:36:32;;;;;;;27.17;15.57;;;8.60;99.90;;;;;;4982910;28;20231;-83
2021/11/19 01:38:58;;;;;;;26.13;16.10;;;8.60;99.90;;;;;;4982737;28;20069;-82
2021/11/19 01:41:35;;;;;;;24.83;15.55;;;8.70;99.90;;;;;;4982495;28;20023;-82
2021/11/19 01:44:20;;;;;;;26.40;16.83;;;8.70;99.90;;;;;;4982696;28;20069;-82
2021/11/19 01:46:52;;;;;;;25.08;16.33;;;8.70;99.90;;;;;;4982546;28;20031;-83
2021/11/19 01:49:19;;;;;;;24.70;15.75;;;8.70;99.90;;;;;;4980827;28;20315;-82
2021/11/19 01:52:00;;;;;;;25.90;16.80;;;8.70;99.90;;;;;;4982529;28;20043;-82
2021/11/19 01:54:30;;;;;;;27.83;15.27;;;8.80;99.90;;;;;;4981964;28;20311;-82
2021/11/19 01:57:14;;;;;;;27.23;16.70;;;8.80;99.90;;;;;;4982332;28;20058;-83
2021/11/19 01:59:45;;;;;;;17.70;10.40;;;8.80;99.90;;;;;;4982189;28;20210;-82
2021/11/19 02:02:41;;;;;;;24.80;15.32;;;8.80;99.90;;;;;;4982335;28;20037;-82
2021/11/19 02:05:13;;;;;;;24.50;15.68;;;8.80;99.90;;;;;;4981307;28;20031;-83
2021/11/19 02:07:45;;;;;;;27.27;16.33;;;8.70;99.90;;;;;;4982411;28;20080;-82
2021/11/19 02:10:19;;;;;;;29.77;16.55;;;8.70;99.90;;;;;;4982424;28;20035;-83
2021/11/19 02:13:29;;;;;;;23.70;15.98;;;8.70;99.90;;;;;;4982672;28;20022;-82
2021/11/19 02:16:04;;;;;;;25.02;15.25;;;8.60;99.90;;;;;;4971459;28;20027;-83
2021/11/19 02:18:38;;;;;;;26.58;16.05;;;8.60;99.90;;;;;;4985844;28;20424;-83
2021/11/19 02:21:13;;;;;;;27.35;15.68;;;8.50;99.90;;;;;;4985739;28;20027;-83
2021/11/19 02:24:22;;;;;;;27.10;15.70;;;8.50;99.90;;;;;;4986032;28;20299;-83
2021/11/19 02:27:01;;;;;;;23.58;14.57;;;8.50;99.90;;;;;;4926281;29;20320;-83
2021/11/19 02:29:28;;;;;;;25.40;15.27;;;8.50;99.90;;;;;;4978841;28;20058;-82
2021/11/19 02:32:00;;;;;;;25.98;15.75;;;8.40;99.90;;;;;;4984931;28;20027;-82
2021/11/19 02:34:28;;;;;;;30.23;15.77;;;8.30;99.90;;;;;;4986251;28;20126;-83
2021/11/19 02:37:02;;;;;;;27.00;15.48;;;8.30;99.90;;;;;;4985762;28;20054;-82
2021/11/19 02:39:35;;;;;;;25.67;14.73;;;8.20;99.90;;;;;;4985972;28;20097;-82
2021/11/19 02:42:08;;;;;;;28.60;16.75;;;8.10;99.90;;;;;;4985851;28;20039;-83
2021/11/19 02:44:35;;;;;;;29.02;16.70;;;8.00;99.90;;;;;;4985542;28;20270;-82
2021/11/19 02:47:11;;;;;;;26.98;16.30;;;7.90;99.90;;;;;;4985527;28;20045;-83
2021/11/19 02:49:38;;;;;;;27.95;15.77;;;7.90;99.90;;;;;;4984304;28;20031;-82
2021/11/19 02:52:06;;;;;;;29.38;16.55;;;7.90;99.90;;;;;;4985729;28;20037;-82
2021/11/19 02:54:33;;;;;;;29.83;15.98;;;7.90;99.90;;;;;;4984375;28;20026;-82
2021/11/19 02:57:01;;;;;;;27.52;16.20;;;7.90;99.90;;;;;;4984456;28;20069;-82
2021/11/19 02:59:27;;;;;;;27.20;16.40;;;7.90;99.90;;;;;;4985340;28;20022;-82
2021/11/19 03:02:00;;;;;;;23.80;15.43;;;7.80;99.90;;;;;;4985406;28;20034;-83
2021/11/19 03:04:33;;;;;;;27.58;16.17;;;7.80;99.90;;;;;;4985122;28;20384;-82
2021/11/19 03:06:59;;;;;;;30.23;15.43;;;7.90;99.90;;;;;;4985383;28;20023;-83
2021/11/19 03:09:31;;;;;;;27.90;15.73;;;7.80;99.90;;;;;;4984371;28;20038;-82
2021/11/19 03:11:58;;;;;;;34.15;17.20;;;7.80;99.90;;;;;;4984968;28;20045;-82
2021/11/19 03:14:24;;;;;;;32.65;16.50;;;7.90;99.90;;;;;;4984675;28;20038;-82
2021/11/19 03:16:52;;;;;;;30.33;16.38;;;7.90;99.90;;;;;;4984529;28;20034;-82
2021/11/19 03:19:18;;;;;;;29.67;17.05;;;7.80;99.90;;;;;;4984031;28;20019;-82
2021/11/19 03:21:45;;;;;;;33.60;16.45;;;7.80;99.90;;;;;;4984701;28;20049;-82
2021/11/19 03:24:12;;;;;;;24.90;15.88;;;7.80;99.90;;;;;;4984753;28;20101;-82
2021/11/19 03:26:38;;;;;;;28.58;16.25;;;7.80;99.90;;;;;;4984249;28;20282;-82
2021/11/19 03:29:06;;;;;;;30.58;17.70;;;7.80;99.90;;;;;;4984453;28;20345;-83
2021/11/19 03:31:33;;;;;;;30.65;16.17;;;7.80;99.90;;;;;;4983995;28;20042;-82
2021/11/19 03:34:00;;;;;;;28.27;15.80;;;7.70;99.90;;;;;;4984672;28;20566;-83
2021/11/19 03:36:26;;;;;;;32.08;16.63;;;7.60;99.90;;;;;;4984925;28;20033;-83
2021/11/19 03:38:55;;;;;;;31.45;17.90;;;7.60;99.90;;;;;;4982921;28;20042;-83
2021/11/19 03:41:25;;;;;;;29.35;16.80;;;7.60;99.90;;;;;;4984795;28;20018;-82
2021/11/19 03:44:06;;;;;;;29.10;17.23;;;7.60;99.90;;;;;;4984609;28;20031;-82
2021/11/19 03:46:46;;;;;;;35.13;16.45;;;7.70;99.90;;;;;;4983276;28;20074;-82
2021/11/19 03:49:12;;;;;;;32.30;16.58;;;7.60;99.90;;;;;;4984486;28;20322;-82
2021/11/19 03:51:44;;;;;;;31.85;16.38;;;7.50;99.90;;;;;;4984392;28;20038;-82
2021/11/19 03:54:11;;;;;;;26.25;15.38;;;7.50;99.90;;;;;;4984914;28;20038;-82
2021/11/19 03:56:38;;;;;;;29.75;15.82;;;7.40;99.90;;;;;;4983603;28;20087;-82
2021/11/19 03:59:05;;;;;;;28.25;16.63;;;7.40;99.90;;;;;;4983768;28;20051;-82
2021/11/19 04:01:34;;;;;;;29.80;17.15;;;7.40;99.90;;;;;;4984109;28;20031;-82
2021/11/19 04:04:03;;;;;;;30.52;16.05;;;7.30;99.90;;;;;;4984200;28;20058;-82
2021/11/19 04:06:30;;;;;;;27.42;17.02;;;7.20;99.90;;;;;;4984149;28;20030;-82
2021/11/19 04:08:55;;;;;;;30.27;16.17;;;7.20;99.90;;;;;;4983161;28;20035;-82
2021/11/19 04:11:23;;;;;;;28.75;16.98;;;7.10;99.90;;;;;;4983795;28;20334;-82
2021/11/19 04:13:49;;;;;;;29.42;16.63;;;7.10;99.90;;;;;;4983628;28;20084;-82
2021/11/19 04:16:32;;;;;;;28.52;16.13;;;7.10;99.90;;;;;;4974581;28;20061;-82
2021/11/19 04:18:59;;;;;;;29.40;16.15;;;7.00;99.90;;;;;;4972445;28;20489;-82
2021/11/19 04:21:26;;;;;;;29.38;16.70;;;7.10;99.90;;;;;;4971167;28;20019;-81
2021/11/19 04:23:53;;;;;;;32.35;18.02;;;7.00;99.90;;;;;;4972298;28;20026;-82
2021/11/19 04:26:20;;;;;;;32.42;18.05;;;6.90;99.90;;;;;;4972468;28;20394;-82
2021/11/19 04:28:46;;;;;;;30.52;16.95;;;7.00;99.90;;;;;;4971840;28;20113;-83
2021/11/19 04:31:14;;;;;;;31.52;18.02;;;7.00;99.90;;;;;;4972560;28;20061;-83
2021/11/19 04:33:41;;;;;;;29.58;18.00;;;7.00;99.90;;;;;;4972950;28;20059;-82
2021/11/19 04:36:07;;;;;;;28.80;16.70;;;7.00;99.90;;;;;;4972596;28;20161;-82
2021/11/19 04:38:33;;;;;;;29.52;16.27;;;7.00;99.90;;;;;;4972319;28;20105;-83
2021/11/19 04:41:00;;;;;;;31.40;16.88;;;6.90;99.90;;;;;;4972942;28;20027;-83
2021/11/19 04:43:27;;;;;;;33.70;17.88;;;6.90;99.90;;;;;;4972893;28;20105;-83
2021/11/19 04:45:54;;;;;;;29.63;17.17;;;6.90;99.90;;;;;;4972827;28;20427;-83
2021/11/19 04:48:22;;;;;;;29.05;16.55;;;6.80;99.90;;;;;;4972635;28;20023;-83
2021/11/19 04:50:50;;;;;;;33.08;18.02;;;6.80;99.90;;;;;;4971210;28;20487;-82
2021/11/19 04:53:18;;;;;;;29.42;16.50;;;6.90;99.90;;;;;;4972376;28;20495;-83
2021/11/19 04:55:44;;;;;;;31.15;17.88;;;6.80;99.90;;;;;;4972510;28;20574;-83
2021/11/19 04:58:10;;;;;;;31.60;16.98;;;6.80;99.90;;;;;;4972659;28;20019;-83
2021/11/19 05:00:43;;;;;;;27.25;16.50;;;6.80;99.90;;;;;;4972464;28;20109;-83
2021/11/19 05:03:10;;;;;;;29.35;16.65;;;6.80;99.90;;;;;;4972474;28;20050;-82
2021/11/19 05:05:37;;;;;;;31.70;17.08;;;6.70;99.90;;;;;;4972222;28;20114;-83
2021/11/19 05:08:04;;;;;;;31.35;16.25;;;6.60;99.90;;;;;;4972001;28;20093;-83
2021/11/19 05:10:31;;;;;;;32.08;16.63;;;6.60;99.90;;;;;;4972249;28;20034;-83
2021/11/19 05:12:59;;;;;;;30.40;17.08;;;6.60;99.90;;;;;;4972310;28;20050;-83
2021/11/19 05:15:27;;;;;;;29.02;16.45;;;6.60;99.90;;;;;;4972366;28;20027;-82
2021/11/19 05:17:53;;;;;;;29.70;17.13;;;6.60;99.90;;;;;;4972344;28;20078;-83
2021/11/19 05:20:21;;;;;;;34.50;16.23;;;6.60;99.90;;;;;;4972195;28;20014;-83
2021/11/19 05:22:48;;;;;;;25.50;16.27;;;6.50;99.90;;;;;;4970793;28;20034;-83
2021/11/19 05:25:16;;;;;;;28.65;16.02;;;6.50;99.90;;;;;;4970748;28;20042;-83
2021/11/19 05:27:43;;;;;;;30.13;16.75;;;6.50;99.90;;;;;;4971946;28;20027;-83
2021/11/19 05:30:09;;;;;;;34.67;17.50;;;6.40;99.90;;;;;;4971941;28;20029;-83
2021/11/19 05:32:35;;;;;;;27.65;16.30;;;6.40;99.90;;;;;;4971935;28;20023;-83
2021/11/19 05:35:02;;;;;;;28.58;16.08;;;6.40;99.90;;;;;;4970735;28;20031;-82
2021/11/19 05:37:28;;;;;;;27.80;16.63;;;6.30;99.90;;;;;;4971906;28;20023;-83
2021/11/19 05:39:53;;;;;;;28.20;16.63;;;6.20;99.90;;;;;;4971970;28;20603;-83
2021/11/19 05:42:20;;;;;;;30.10;16.73;;;6.20;99.90;;;;;;4971899;28;20498;-83
2021/11/19 05:44:45;;;;;;;29.80;16.80;;;6.20;99.90;;;;;;4971757;28;20019;-83
2021/11/19 05:47:11;;;;;;;30.05;16.92;;;6.20;99.90;;;;;;4971665;28;20034;-82
2021/11/19 05:49:38;;;;;;;28.77;16.85;;;6.10;99.90;;;;;;4971450;28;20027;-83
2021/11/19 05:52:07;;;;;;;28.92;16.33;;;6.10;99.90;;;;;;4971804;28;20070;-83
2021/11/19 05:54:35;;;;;;;36.58;18.10;;;6.10;99.90;;;;;;4971626;28;20093;-83
2021/11/19 05:57:02;;;;;;;29.80;16.83;;;6.10;99.90;;;;;;4971669;28;20063;-83
2021/11/19 05:59:28;;;;;;;32.50;16.85;;;6.00;99.90;;;;;;4971662;28;20422;-83
2021/11/19 06:01:55;;;;;;;29.23;17.02;;;6.00;99.90;;;;;;4971619;28;20019;-83
2021/11/19 06:04:20;;;;;;;27.20;15.35;;;6.00;99.90;;;;;;4971585;28;20511;-83
2021/11/19 06:06:46;;;;;;;29.80;17.35;;;5.90;99.90;;;;;;4971793;28;20051;-83
2021/11/19 06:09:17;;;;;;;29.98;17.08;;;5.90;99.90;;;;;;4970231;28;20050;-83
2021/11/19 06:11:50;;;;;;;28.25;16.48;;;6.00;99.90;;;;;;4971639;28;20139;-83
2021/11/19 06:14:24;;;;;;;27.63;16.27;;;5.90;99.90;;;;;;4971706;28;20031;-83
2021/11/19 06:16:55;;;;;;;32.58;18.10;;;6.00;99.90;;;;;;4971578;28;20113;-83
2021/11/19 06:19:26;;;;;;;26.80;16.50;;;5.90;99.90;;;;;;4971338;28;20495;-83
2021/11/19 06:21:57;;;;;;;29.17;17.17;;;5.90;99.90;;;;;;4971235;28;20053;-83
2021/11/19 06:24:29;;;;;;;29.85;17.92;;;5.90;99.90;;;;;;4971310;28;20081;-83
2021/11/19 06:26:55;;;;;;;31.25;17.58;;;6.00;99.90;;;;;;4971649;28;20058;-82
2021/11/19 06:29:21;;;;;;;34.15;19.13;;;5.90;99.90;;;;;;4971454;28;20026;-82
2021/11/19 06:31:51;;;;;;;30.30;16.90;;;5.90;99.90;;;;;;4971266;28;20069;-83
2021/11/19 06:34:17;;;;;;;29.50;17.08;;;5.80;99.90;;;;;;4971528;28;20042;-82
2021/11/19 06:36:45;;;;;;;32.85;18.52;;;5.80;99.90;;;;;;4969931;28;20023;-83
2021/11/19 06:39:11;;;;;;;31.60;18.85;;;5.80;99.90;;;;;;4971126;28;20061;-83
2021/11/19 06:41:37;;;;;;;29.52;16.40;;;5.80;99.90;;;;;;4971306;28;20034;-83
2021/11/19 06:44:04;;;;;;;30.60;17.50;;;5.80;99.90;;;;;;4971256;28;20050;-83
2021/11/19 06:46:30;;;;;;;29.05;17.50;;;5.70;99.90;;;;;;4971703;28;20046;-82
2021/11/19 06:48:56;;;;;;;28.38;16.45;;;5.70;99.90;;;;;;4971033;28;20030;-83
2021/11/19 06:51:23;;;;;;;29.67;17.25;;;5.70;99.90;;;;;;4973452;28;20043;-84
2021/11/19 06:53:49;;;;;;;29.60;17.23;;;5.70;99.90;;;;;;4973673;28;20034;-84
2021/11/19 06:56:16;;;;;;;30.15;16.27;;;5.70;99.90;;;;;;4970673;28;20051;-84
2021/11/19 06:58:43;;;;;;;31.40;17.15;;;5.70;99.90;;;;;;4970458;28;20029;-84
2021/11/19 07:01:08;;;;;;;29.17;16.90;;;5.60;99.90;;;;;;4972495;28;20110;-84
2021/11/19 07:03:34;;;;;;;29.98;16.42;;;5.70;99.90;;;;;;4973994;28;20097;-85
2021/11/19 07:06:00;;;;;;;28.13;17.38;;;5.70;99.90;;;;;;4974784;28;20065;-86
2021/11/19 07:08:27;;;;;;;25.63;16.33;;;5.70;99.90;;;;;;4978136;28;20019;-85
2021/11/19 07:10:56;;;;;;;31.20;17.27;;;5.70;99.90;;;;;;4976107;28;20085;-85
2021/11/19 07:13:23;;;;;;;25.63;16.85;;;5.70;99.90;;;;;;4976794;28;20026;-85
2021/11/19 07:15:49;;;;;;;27.00;16.27;;;5.70;99.90;;;;;;4981593;28;20042;-86
2021/11/19 07:18:15;;;;;;;28.27;16.70;;;5.70;99.90;;;;;;4975956;28;20023;-86
2021/11/19 07:20:43;;;;;;;28.23;15.77;;;5.80;99.90;;;;;;4975830;28;20519;-86
2021/11/19 07:23:10;;;;;;;29.08;17.27;;;5.80;99.90;;;;;;4977518;28;20031;-86
2021/11/19 07:25:37;;;;;;;28.88;17.15;;;5.80;99.90;;;;;;4977185;28;20025;-85
2021/11/19 07:28:05;;;;;;;29.27;17.23;;;5.70;99.90;;;;;;4975726;28;20053;-86
2021/11/19 07:30:37;;;;;;;30.02;16.48;;;5.70;99.90;;;;;;4967966;28;20091;-86
2021/11/19 07:33:03;;;;;;;25.13;15.00;;;5.70;99.90;;;;;;4953406;28;20114;-86
2021/11/19 07:35:30;;;;;;;28.02;15.35;;;5.70;99.90;;;;;;4951922;29;20680;-85
2021/11/19 07:37:55;;;;;;;27.73;15.18;;;5.80;99.90;;;;;;4951241;28;20053;-85
2021/11/19 07:40:25;;;;;;;30.70;17.88;;;5.80;99.90;;;;;;4952872;29;20556;-86
2021/11/19 07:42:51;;;;;;;29.77;17.35;;;5.80;99.90;;;;;;4953186;28;20039;-86
2021/11/19 07:45:17;;;;;;;30.75;15.55;;;5.80;99.90;;;;;;4951566;29;20038;-85
2021/11/19 07:47:44;;;;;;;26.02;16.67;;;5.90;99.90;;;;;;4952682;28;20027;-85
2021/11/19 07:50:13;;;;;;;28.80;17.40;;;5.90;99.90;;;;;;4952372;29;20526;-85
2021/11/19 07:52:38;;;;;;;29.88;16.88;;;6.00;99.90;;;;;;4951103;29;20042;-86
2021/11/19 07:55:06;;;;;;;29.02;17.25;;;6.00;99.90;;;;;;4952259;29;20040;-85
2021/11/19 07:57:32;;;;;;;33.15;18.42;;;6.20;99.90;;;;;;4952353;28;20038;-86
2021/11/19 07:59:58;;;;;;;28.23;17.20;;;6.20;99.90;;;;;;4952791;29;20330;-86
2021/11/19 08:02:24;;;;;;;28.88;17.20;;;6.20;99.90;;;;;;4953080;29;20600;-85
2021/11/19 08:04:50;;;;;;;24.63;15.65;;;6.30;99.90;;;;;;4954218;29;20055;-86
2021/11/19 08:07:16;;;;;;;25.77;15.57;;;6.30;99.90;;;;;;4954054;28;20086;-85
2021/11/19 08:09:41;;;;;;;29.75;16.83;;;6.30;99.90;;;;;;4954114;29;20023;-86
2021/11/19 08:12:07;;;;;;;26.20;17.00;;;6.40;99.90;;;;;;4953684;28;20043;-86
2021/11/19 08:14:33;;;;;;;27.75;16.67;;;6.50;99.90;;;;;;4954175;28;20019;-86
2021/11/19 08:17:02;;;;;;;24.30;15.85;;;6.50;99.90;;;;;;4952865;29;20027;-86
2021/11/19 08:19:33;;;;;;;32.40;16.52;;;6.60;99.90;;;;;;4954030;28;20024;-85
2021/11/19 08:22:00;;;;;;;26.90;16.27;;;6.70;99.90;;;;;;4952480;29;20238;-85
2021/11/19 08:24:28;;;;;;;25.50;15.32;;;6.80;99.90;;;;;;4953650;28;20023;-86
2021/11/19 08:26:57;;;;;;;25.90;16.10;;;6.80;99.90;;;;;;4952624;28;20035;-86
2021/11/19 08:29:30;;;;;;;25.38;15.60;;;6.80;99.90;;;;;;4952406;29;20128;-86
2021/11/19 08:31:58;;;;;;;23.45;15.55;;;6.90;99.90;;;;;;4952281;29;20035;-87
2021/11/19 08:34:24;;;;;;;25.55;15.32;;;7.00;99.90;;;;;;4952511;29;20110;-86
2021/11/19 08:36:50;;;;;;;25.90;16.55;;;6.90;99.90;;;;;;4953735;29;20512;-86
2021/11/19 08:39:19;;;;;;;22.73;15.15;;;7.00;99.90;;;;;;4952179;29;20106;-86
2021/11/19 08:41:45;;;;;;;22.52;14.73;;;7.00;99.90;;;;;;4953633;28;20280;-85
2021/11/19 08:44:11;;;;;;;23.83;15.80;;;7.10;99.90;;;;;;4953484;29;20030;-87
2021/11/19 08:46:43;;;;;;;25.88;16.02;;;7.20;99.90;;;;;;4953352;29;20027;-85
2021/11/19 08:49:13;;;;;;;22.58;14.90;;;7.20;99.90;;;;;;4953458;28;20027;-85
2021/11/19 08:51:40;;;;;;;22.05;14.93;;;7.30;99.90;;;;;;4951886;29;20036;-85
2021/11/19 08:54:08;;;;;;;25.70;16.17;;;7.40;99.90;;;;;;4951803;29;20094;-86
2021/11/19 08:56:37;;;;;;;26.52;15.77;;;7.50;99.90;;;;;;4953239;28;20130;-86
2021/11/19 08:59:08;;;;;;;29.08;16.95;;;7.60;99.90;;;;;;4951897;28;20035;-86
2021/11/19 09:01:36;;;;;;;20.02;13.88;;;7.60;99.90;;;;;;4951822;29;20027;-87
2021/11/19 09:04:03;;;;;;;23.85;15.55;;;7.70;99.90;;;;;;4951791;28;20162;-86
2021/11/19 09:06:28;;;;;;;27.70;17.35;;;7.70;99.90;;;;;;4952030;29;20054;-87
2021/11/19 09:08:54;;;;;;;28.75;14.95;;;7.70;99.90;;;;;;4953110;29;20023;-85
2021/11/19 09:11:23;;;;;;;19.02;13.85;;;7.70;99.90;;;;;;4951793;28;20047;-86
2021/11/19 09:13:51;;;;;;;19.65;13.88;;;7.80;99.90;;;;;;4953609;28;20105;-86
2021/11/19 09:16:20;;;;;;;22.80;14.30;;;7.90;99.90;;;;;;4953350;28;20027;-85
2021/11/19 09:19:04;;;;;;;23.42;14.32;;;7.90;99.90;;;;;;4951951;29;20027;-85
2021/11/19 09:22:16;;;;;;;19.58;13.68;;;8.00;99.90;;;;;;4953184;28;20030;-86
2021/11/19 09:24:42;;;;;;;20.05;14.02;;;8.00;99.90;;;;;;4952790;28;20027;-86
2021/11/19 09:27:12;;;;;;;22.13;13.80;;;8.10;99.90;;;;;;4951632;29;20035;-87
2021/11/19 09:29:45;;;;;;;25.80;13.32;;;8.10;99.90;;;;;;4952729;28;20024;-87
2021/11/19 09:32:12;;;;;;;16.38;12.23;;;8.20;99.90;;;;;;4952987;28;20039;-86
2021/11/19 09:34:41;;;;;;;18.80;12.35;;;8.20;99.90;;;;;;4951426;29;20054;-86
2021/11/19 09:37:08;;;;;;;16.88;12.30;;;8.20;99.90;;;;;;4951271;29;20086;-86
2021/11/19 09:39:34;;;;;;;16.05;12.05;;;8.30;99.90;;;;;;4952808;28;20094;-85
2021/11/19 09:42:17;;;;;;;18.80;12.63;;;8.40;99.90;;;;;;4951071;29;20027;-86
2021/11/19 09:45:04;;;;;;;16.90;11.13;;;8.40;99.90;;;;;;4951211;29;20408;-86
2021/11/19 09:47:54;;;;;;;19.35;12.50;;;8.50;99.90;;;;;;4951188;29;20035;-86
2021/11/19 09:51:04;;;;;;;19.25;11.57;;;8.60;99.90;;;;;;4952475;29;20123;-86
2021/11/19 09:54:01;;;;;;;19.42;11.75;;;8.80;99.90;;;;;;4952401;28;20031;-85
2021/11/19 09:56:53;;;;;;;15.32;10.82;;;8.80;99.90;;;;;;4950982;29;20491;-86
2021/11/19 09:59:18;;;;;;;23.98;12.82;;;8.90;99.90;;;;;;4951103;29;20479;-86
2021/11/19 10:01:50;;;;;;;19.63;10.55;;;8.90;99.90;;;;;;4951027;29;20028;-86
2021/11/19 10:04:18;;;;;;;16.67;11.45;;;8.90;99.90;;;;;;4950979;29;20029;-86
2021/11/19 10:07:07;;;;;;;15.25;11.07;;;9.00;99.90;;;;;;4951159;29;20039;-86
2021/11/19 10:10:04;;;;;;;16.98;12.23;;;9.00;99.90;;;;;;4951217;29;20403;-86
2021/11/19 10:12:47;;;;;;;14.00;10.27;;;9.10;99.90;;;;;;4945180;28;20043;-86
2021/11/19 10:15:53;;;;;;;16.33;10.50;;;9.20;99.90;;;;;;4951105;28;20062;-86
2021/11/19 10:18:55;;;;;;;14.20;9.48;;;9.30;99.90;;;;;;4950841;29;20138;-86
2021/11/19 10:21:34;;;;;;;15.13;10.18;;;9.40;99.90;;;;;;4924365;28;20044;-86
2021/11/19 10:24:12;;;;;;;15.05;10.95;;;9.50;99.90;;;;;;4952106;28;20031;-86
2021/11/19 10:26:38;;;;;;;14.93;9.95;;;9.60;99.90;;;;;;4952190;28;20024;-86
2021/11/19 10:29:12;;;;;;;12.88;9.20;;;9.70;99.90;;;;;;4952599;28;20038;-87
2021/11/19 10:31:37;;;;;;;13.60;10.35;;;9.70;99.90;;;;;;4950975;29;20039;-86
2021/11/19 10:34:25;;;;;;;15.25;10.52;;;9.80;99.90;;;;;;4951002;28;20032;-86
2021/11/19 10:37:05;;;;;;;13.32;9.82;;;9.90;99.90;;;;;;4954378;29;20516;-86
2021/11/19 10:39:53;;;;;;;13.13;11.18;;;9.90;99.90;;;;;;4954804;29;20038;-85
2021/11/19 10:42:46;;;;;;;12.43;9.90;;;10.00;99.90;;;;;;4954858;29;20463;-86
2021/11/19 10:45:48;;;;;;;13.98;10.38;;;10.10;99.90;;;;;;4955837;28;20038;-86
2021/11/19 10:48:41;;;;;;;16.75;12.18;;;10.20;99.90;;;;;;4955614;29;20030;-86
2021/11/19 10:51:12;;;;;;;13.95;12.00;;;10.30;99.90;;;;;;4927998;28;20389;-87
2021/11/19 10:54:06;;;;;;;12.10;8.48;;;10.40;99.90;;;;;;4955384;29;20031;-85
2021/11/19 10:56:50;;;;;;;13.02;8.00;;;10.50;99.90;;;;;;4953920;29;20043;-86
2021/11/19 10:59:48;;;;;;;11.90;8.70;;;10.50;99.90;;;;;;4954194;29;20369;-87
2021/11/19 11:02:33;;;;;;;11.43;8.43;;;10.60;99.90;;;;;;4944925;29;20051;-86
2021/11/19 11:05:00;;;;;;;11.13;7.82;;;10.60;99.90;;;;;;4954022;29;20569;-85
2021/11/19 11:07:31;;;;;;;15.27;8.18;;;10.70;99.90;;;;;;4954029;29;20078;-86
2021/11/19 11:10:16;;;;;;;12.38;8.85;;;10.70;99.90;;;;;;4955072;28;20110;-86
2021/11/19 11:12:52;;;;;;;11.63;8.35;;;10.70;99.90;;;;;;4953982;29;20031;-86
2021/11/19 11:15:21;;;;;;;10.48;7.70;;;10.80;99.90;;;;;;4953597;29;20049;-86
2021/11/19 11:18:12;;;;;;;18.35;7.90;;;10.90;99.90;;;;;;4954186;28;20098;-87
2021/11/19 11:20:58;;;;;;;14.15;8.30;;;11.00;99.90;;;;;;4963551;28;20026;-86
2021/11/19 11:23:46;;;;;;;23.17;9.45;;;11.10;99.90;;;;;;4966719;28;20025;-87
2021/11/19 11:26:40;;;;;;;12.25;7.82;;;11.10;99.90;;;;;;4972894;28;20377;-86
2021/11/19 11:29:09;;;;;;;11.30;7.82;;;11.20;99.90;;;;;;4971701;28;20092;-86
2021/11/19 11:31:41;;;;;;;11.95;8.27;;;11.20;99.90;;;;;;4973055;28;20038;-86
2021/11/19 11:34:09;;;;;;;10.48;7.72;;;11.30;99.90;;;;;;4974452;28;20019;-86
2021/11/19 11:36:38;;;;;;;13.00;7.85;;;11.40;99.90;;;;;;4974254;28;20026;-86
2021/11/19 11:39:17;;;;;;;23.10;8.43;;;11.50;99.90;;;;;;4974323;28;20061;-86
2021/11/19 11:41:46;;;;;;;10.05;7.45;;;11.60;99.90;;;;;;4972936;28;20030;-87
2021/11/19 11:44:15;;;;;;;10.40;7.35;;;11.60;99.90;;;;;;4972941;28;20023;-87
2021/11/19 11:46:59;;;;;;;11.15;7.97;;;11.60;99.90;;;;;;4973271;28;20030;-87
2021/11/19 11:49:34;;;;;;;12.15;7.63;;;11.60;99.90;;;;;;4973745;28;20019;-87
2021/11/19 11:52:19;;;;;;;11.13;7.03;;;11.70;99.90;;;;;;4972426;28;20097;-86
2021/11/19 11:54:53;;;;;;;;;;;11.70;99.90;;;;;;4972674;28;20386;-86
2021/11/19 11:57:40;;;;;;;9.93;7.40;;;11.80;99.90;;;;;;4973847;28;20000;-87
2021/11/19 12:00:20;;;;;;;11.50;7.88;;;11.90;99.90;;;;;;4978891;28;20057;-86
2021/11/19 12:03:19;;;;;;;10.52;7.93;;;12.00;99.90;;;;;;4979646;28;20062;-87
2021/11/19 12:06:23;;;;;;;11.90;7.82;;;12.00;99.90;;;;;;4980728;28;20501;-88
2021/11/19 12:09:06;;;;;;;11.55;7.82;;;12.00;99.90;;;;;;4969271;28;20038;-86
2021/11/19 12:12:17;;;;;;;10.15;7.32;;;11.90;99.90;;;;;;4980114;28;20402;-87
2021/11/19 12:15:09;;;;;;;12.85;7.40;;;11.90;99.90;;;;;;4980252;28;20019;-87
2021/11/19 12:17:57;;;;;;;10.93;7.30;;;11.90;99.90;;;;;;4979870;28;20558;-87
2021/11/19 12:20:54;;;;;;;10.18;6.78;;;12.00;99.90;;;;;;4980356;28;20054;-86
2021/11/19 12:23:31;;;;;;;9.20;6.78;;;12.10;99.90;;;;;;4975667;28;20105;-87
2021/11/19 12:26:19;;;;;;;13.40;7.85;;;12.30;99.90;;;;;;4973704;28;20022;-87
2021/11/19 12:28:47;;;;;;;11.02;6.93;;;12.30;99.90;;;;;;4971877;28;20027;-86
2021/11/19 12:31:28;;;;;;;9.25;6.45;;;12.40;99.90;;;;;;4971616;28;20129;-87
2021/11/19 12:34:03;;;;;;;9.88;7.60;;;12.50;99.90;;;;;;4973409;28;20038;-86
2021/11/19 12:36:35;;;;;;;12.32;7.35;;;12.50;99.90;;;;;;4973003;28;20051;-86
2021/11/19 12:39:05;;;;;;;11.25;6.35;;;12.50;99.90;;;;;;4972786;28;20025;-87
2021/11/19 12:41:44;;;;;;;7.68;6.40;;;12.60;99.90;;;;;;4972756;28;20033;-87
2021/11/19 12:44:09;;;;;;;10.77;6.68;;;12.70;99.90;;;;;;4972804;28;20033;-86
2021/11/19 12:47:09;;;;;;;9.25;6.70;;;12.60;99.90;;;;;;4973079;28;20106;-86
2021/11/19 12:49:57;;;;;;;9.75;6.47;;;12.80;99.90;;;;;;4971717;28;20507;-87
2021/11/19 12:53:01;;;;;;;9.15;6.32;;;12.90;99.90;;;;;;4972935;28;20039;-86
2021/11/19 12:56:02;;;;;;;10.02;7.13;;;13.00;99.90;;;;;;4972313;28;20062;-87
2021/11/19 12:58:36;;;;;;;11.80;6.95;;;13.10;99.90;;;;;;4970668;28;20041;-87
2021/11/19 13:01:02;;;;;;;;;;;13.10;99.90;;;;;;4972766;28;20034;-86
2021/11/19 13:03:52;;;;;;;7.60;5.38;;;13.20;99.90;;;;;;4971101;28;19909;-87
2021/11/19 13:06:19;;;;;;;8.40;5.88;;;13.20;99.90;;;;;;4972623;28;20109;-87